Wetterdaten: Woche 28.02.05 - 06.03.05 (KW9)
Datum Zeit Temperatur Luftfeuchte Luftdruck Niederschlag Wind Richtung Sonne Solar Taupunkt Windchill
28.02.2005 00:00 -8.5 C 58 % 1019.9 hPa 0.0 l/m 1.5 km/h (1 Bft) NO 0.00 h 0 W/m -15.2 C -8.9 C
28.02.2005 01:00 -8.9 C 59 % 1019.9 hPa 0.0 l/m 0.6 km/h (0 Bft) O 0.00 h 0 W/m -15.3 C -8.9 C
28.02.2005 02:00 -9.2 C 61 % 1020.0 hPa 0.0 l/m 1.5 km/h (1 Bft) N-NO 0.00 h 0 W/m -15.3 C -9.7 C
28.02.2005 03:00 -9.2 C 62 % 1020.0 hPa 0.0 l/m 2.7 km/h (1 Bft) O-NO 0.00 h 0 W/m -15.1 C -10.2 C
28.02.2005 04:00 -9.3 C 60 % 1020.6 hPa 0.0 l/m 5.4 km/h (1 Bft) O-NO 0.00 h 0 W/m -15.5 C -11.4 C
28.02.2005 05:00 -10.2 C 63 % 1021.2 hPa 0.0 l/m 5.5 km/h (1 Bft) O 0.00 h 0 W/m -15.8 C -12.7 C
28.02.2005 06:00 -10.2 C 63 % 1021.6 hPa 0.0 l/m 1.5 km/h (1 Bft) NO 0.00 h 0 W/m -15.9 C -10.6 C
28.02.2005 07:00 -10.2 C 62 % 1022.2 hPa 0.0 l/m 5.1 km/h (1 Bft) NO 0.03 h 28 W/m -16.1 C -12.7 C
28.02.2005 08:00 -9.6 C 60 % 1022.1 hPa 0.0 l/m 3.7 km/h (1 Bft) NO 0.37 h 156 W/m -15.9 C -11.1 C
28.02.2005 09:00 -7.9 C 55 % 1021.9 hPa 0.0 l/m 14.5 km/h (3 Bft) NO 1.00 h 412 W/m -15.3 C -14.0 C
28.02.2005 10:00 -6.6 C 51 % 1021.7 hPa 0.0 l/m 13.8 km/h (3 Bft) O 1.00 h 530 W/m -15.0 C -12.0 C
28.02.2005 11:00 -5.5 C 47 % 1021.5 hPa 0.0 l/m 12.3 km/h (3 Bft) NO 0.93 h 562 W/m -14.9 C -10.1 C
28.02.2005 12:00 -5.0 C 39 % 1021.4 hPa 0.0 l/m 15.3 km/h (3 Bft) O-NO 0.93 h 562 W/m -16.8 C -10.0 C
28.02.2005 13:00 -4.0 C 33 % 1020.2 hPa 0.0 l/m 13.4 km/h (3 Bft) O-NO 1.00 h 628 W/m -17.9 C -8.6 C
28.02.2005 14:00 -3.6 C 30 % 1019.5 hPa 0.0 l/m 17.7 km/h (3 Bft) O 1.00 h 561 W/m -18.6 C -9.2 C
28.02.2005 15:00 -3.7 C 30 % 1019.1 hPa 0.0 l/m 17.8 km/h (3 Bft) O 1.00 h 458 W/m -18.7 C -9.3 C
28.02.2005 16:00 -4.3 C 30 % 1018.8 hPa 0.0 l/m 12.1 km/h (2 Bft) NO 1.00 h 321 W/m -19.2 C -8.0 C
28.02.2005 17:00 -5.3 C 30 % 1018.8 hPa 0.0 l/m 7.9 km/h (2 Bft) NO 0.77 h 102 W/m -20.1 C -8.5 C
28.02.2005 18:00 -7.0 C 33 % 1019.3 hPa 0.0 l/m 6.0 km/h (2 Bft) O-NO 0.03 h 14 W/m -20.6 C -9.5 C
28.02.2005 19:00 -7.5 C 34 % 1019.7 hPa 0.0 l/m 7.7 km/h (2 Bft) NO 0.00 h 0 W/m -20.6 C -10.5 C
28.02.2005 20:00 -8.4 C 44 % 1019.9 hPa 0.0 l/m 4.3 km/h (1 Bft) NO 0.00 h 0 W/m -18.5 C -10.2 C
28.02.2005 21:00 -9.4 C 50 % 1019.3 hPa 0.0 l/m 2.6 km/h (1 Bft) N-NO 0.00 h 0 W/m -17.9 C -10.2 C
28.02.2005 22:00 -10.5 C 54 % 1019.2 hPa 0.0 l/m 0.9 km/h (0 Bft) O 0.00 h 0 W/m -17.9 C -10.8 C
28.02.2005 23:00 -11.0 C 57 % 1019.2 hPa 0.0 l/m 0.6 km/h (0 Bft) N-NO 0.00 h 0 W/m -17.9 C -11.1 C
01.03.2005 00:00 -12.1 C 60 % 1019.0 hPa 0.0 l/m 1.9 km/h (1 Bft) O 0.00 h 0 W/m -18.4 C -12.7 C
01.03.2005 01:00 -13.3 C 66 % 1018.6 hPa 0.0 l/m 6.7 km/h (2 Bft) O-SO 0.00 h 0 W/m -18.2 C -17.2 C
01.03.2005 02:00 -13.9 C 71 % 1018.7 hPa 0.0 l/m 6.9 km/h (2 Bft) O-SO 0.00 h 0 W/m -18.0 C -17.9 C
01.03.2005 03:00 -14.5 C 72 % 1018.0 hPa 0.0 l/m 8.4 km/h (2 Bft) O-SO 0.00 h 0 W/m -18.4 C -19.9 C
01.03.2005 04:00 -15.0 C 73 % 1017.6 hPa 0.0 l/m 2.0 km/h (1 Bft) O 0.00 h 0 W/m -18.7 C -16.2 C
01.03.2005 05:00 -15.6 C 73 % 1017.2 hPa 0.0 l/m 3.9 km/h (1 Bft) O 0.00 h 0 W/m -19.2 C -17.2 C
01.03.2005 06:00 -16.0 C 73 % 1016.9 hPa 0.0 l/m 6.4 km/h (2 Bft) O-SO 0.00 h 0 W/m -19.7 C -20.2 C
01.03.2005 07:00 -15.9 C 73 % 1017.3 hPa 0.0 l/m 2.5 km/h (1 Bft) O 0.50 h 53 W/m -19.5 C -16.9 C
01.03.2005 08:00 -13.3 C 69 % 1017.5 hPa 0.0 l/m 1.1 km/h (0 Bft) O-SO 1.00 h 226 W/m -17.8 C -13.5 C
01.03.2005 09:00 -11.3 C 62 % 1016.2 hPa 0.0 l/m 1.8 km/h (1 Bft) SO 1.00 h 389 W/m -17.1 C -11.8 C
01.03.2005 10:00 -8.5 C 58 % 1015.7 hPa 0.0 l/m 8.3 km/h (2 Bft) SO 1.00 h 509 W/m -15.3 C -12.7 C
01.03.2005 11:00 -6.5 C 55 % 1014.9 hPa 0.0 l/m 9.7 km/h (2 Bft) O-SO 1.00 h 583 W/m -14.0 C -10.7 C
01.03.2005 12:00 -4.8 C 49 % 1014.1 hPa 0.0 l/m 11.5 km/h (2 Bft) O-SO 1.00 h 618 W/m -13.9 C -9.4 C
01.03.2005 13:00 -3.4 C 43 % 1012.9 hPa 0.0 l/m 10.4 km/h (2 Bft) O-SO 1.00 h 600 W/m -14.3 C -7.3 C
01.03.2005 14:00 -2.3 C 34 % 1012.0 hPa 0.0 l/m 7.1 km/h (2 Bft) W-NW 1.00 h 555 W/m -15.9 C -4.7 C
01.03.2005 15:00 -1.0 C 30 % 1011.4 hPa 0.0 l/m 3.5 km/h (1 Bft) NW 1.00 h 417 W/m -16.3 C -2.1 C
01.03.2005 16:00 -0.7 C 30 % 1011.0 hPa 0.0 l/m 2.4 km/h (1 Bft) W-NW 0.57 h 166 W/m -16.1 C -1.4 C
01.03.2005 17:00 -1.9 C 30 % 1010.7 hPa 0.0 l/m 1.0 km/h (0 Bft) W-NW 0.00 h 46 W/m -16.9 C -2.1 C
01.03.2005 18:00 -3.7 C 44 % 1010.8 hPa 0.0 l/m 3.3 km/h (1 Bft) O-SO 0.00 h 7 W/m -14.2 C -4.7 C
01.03.2005 19:00 -4.9 C 56 % 1011.0 hPa 0.0 l/m 5.7 km/h (1 Bft) O-SO 0.00 h 0 W/m -12.3 C -7.3 C
01.03.2005 20:00 -6.3 C 62 % 1011.2 hPa 0.0 l/m 7.6 km/h (2 Bft) O-SO 0.00 h 0 W/m -12.4 C -9.9 C
01.03.2005 21:00 -7.8 C 64 % 1011.7 hPa 0.0 l/m 7.7 km/h (2 Bft) O-SO 0.00 h 0 W/m -13.5 C -11.7 C
01.03.2005 22:00 -9.2 C 69 % 1011.7 hPa 0.0 l/m 5.9 km/h (2 Bft) O-SO 0.00 h 0 W/m -13.8 C -12.5 C
01.03.2005 23:00 -10.5 C 73 % 1011.9 hPa 0.0 l/m 3.9 km/h (1 Bft) O-SO 0.00 h 0 W/m -14.4 C -12.2 C
02.03.2005 00:00 -11.1 C 76 % 1012.0 hPa 0.0 l/m 4.6 km/h (1 Bft) O-SO 0.00 h 0 W/m -14.5 C -12.7 C
02.03.2005 01:00 -11.9 C 77 % 1012.1 hPa 0.0 l/m 2.7 km/h (1 Bft) O-SO 0.00 h 0 W/m -15.1 C -12.6 C
02.03.2005 02:00 -12.4 C 78 % 1012.2 hPa 0.0 l/m 0.0 km/h (0 Bft) N 0.00 h 0 W/m -15.4 C -12.4 C
02.03.2005 03:00 -12.9 C 77 % 1011.4 hPa 0.0 l/m 1.5 km/h (1 Bft) O-SO 0.00 h 0 W/m -16.1 C -13.6 C
02.03.2005 04:00 -13.4 C 76 % 1011.3 hPa 0.0 l/m 3.6 km/h (1 Bft) O-SO 0.00 h 0 W/m -16.6 C -14.9 C
02.03.2005 05:00 -13.8 C 76 % 1011.3 hPa 0.0 l/m 0.7 km/h (0 Bft) O-SO 0.00 h 0 W/m -17.1 C -13.8 C
02.03.2005 06:00 -14.0 C 76 % 1011.4 hPa 0.0 l/m 1.8 km/h (1 Bft) O-SO 0.00 h 0 W/m -17.3 C -14.7 C
02.03.2005 07:00 -13.8 C 76 % 1011.3 hPa 0.0 l/m 1.5 km/h (1 Bft) O-SO 0.00 h 35 W/m -17.1 C -14.5 C
02.03.2005 08:00 -11.5 C 73 % 1011.0 hPa 0.0 l/m 0.3 km/h (0 Bft) O-SO 0.97 h 179 W/m -15.4 C -11.5 C
02.03.2005 09:00 -9.1 C 68 % 1010.6 hPa 0.0 l/m 2.5 km/h (1 Bft) O-SO 1.00 h 340 W/m -13.9 C -9.7 C
02.03.2005 10:00 -6.3 C 62 % 1010.0 hPa 0.0 l/m 5.7 km/h (1 Bft) SO 1.00 h 478 W/m -12.4 C -8.9 C
02.03.2005 11:00 -3.0 C 57 % 1008.7 hPa 0.0 l/m 8.0 km/h (2 Bft) SO 1.00 h 568 W/m -10.3 C -6.0 C
02.03.2005 12:00 -0.5 C 52 % 1008.2 hPa 0.0 l/m 11.0 km/h (2 Bft) SO 1.00 h 619 W/m -9.1 C -4.1 C
02.03.2005 13:00 1.1 C 43 % 1007.2 hPa 0.0 l/m 11.4 km/h (2 Bft) O-SO 1.00 h 593 W/m -10.1 C -2.2 C
02.03.2005 14:00 2.1 C 39 % 1006.8 hPa 0.0 l/m 13.9 km/h (3 Bft) O-SO 1.00 h 530 W/m -10.5 C -1.6 C
02.03.2005 15:00 2.1 C 39 % 1006.0 hPa 0.0 l/m 7.1 km/h (2 Bft) O-SO 1.00 h 427 W/m -10.5 C 0.4 C
02.03.2005 16:00 1.9 C 35 % 1005.8 hPa 0.0 l/m 5.3 km/h (1 Bft) SO 1.00 h 278 W/m -11.9 C 0.6 C
02.03.2005 17:00 0.6 C 46 % 1006.0 hPa 0.0 l/m 6.7 km/h (2 Bft) O-SO 0.40 h 79 W/m -9.7 C -1.3 C
02.03.2005 18:00 -1.5 C 52 % 1006.3 hPa 0.0 l/m 5.2 km/h (1 Bft) O-SO 0.03 h 10 W/m -10.2 C -3.3 C
02.03.2005 19:00 -3.2 C 63 % 1007.1 hPa 0.0 l/m 3.8 km/h (1 Bft) O-SO 0.00 h 0 W/m -9.2 C -4.5 C
02.03.2005 20:00 -4.1 C 68 % 1007.7 hPa 0.0 l/m 3.7 km/h (1 Bft) O-SO 0.00 h 0 W/m -9.1 C -5.4 C
02.03.2005 21:00 -5.0 C 74 % 1007.9 hPa 0.0 l/m 1.3 km/h (1 Bft) O-SO 0.00 h 0 W/m -9.0 C -5.2 C
02.03.2005 22:00 -5.5 C 76 % 1008.8 hPa 0.0 l/m 3.3 km/h (1 Bft) O-SO 0.00 h 0 W/m -9.1 C -6.7 C
02.03.2005 23:00 -6.0 C 75 % 1009.1 hPa 0.0 l/m 4.5 km/h (1 Bft) O 0.00 h 0 W/m -9.8 C -7.5 C
03.03.2005 00:00 -6.8 C 77 % 1009.2 hPa 0.0 l/m 3.3 km/h (1 Bft) O 0.00 h 0 W/m -10.1 C -7.9 C
03.03.2005 01:00 -7.3 C 80 % 1009.3 hPa 0.0 l/m 0.8 km/h (0 Bft) O 0.00 h 0 W/m -10.1 C -7.4 C
03.03.2005 02:00 -7.7 C 81 % 1009.3 hPa 0.0 l/m 0.0 km/h (0 Bft) N 0.00 h 0 W/m -10.4 C -7.7 C
03.03.2005 03:00 -7.7 C 82 % 1009.3 hPa 0.0 l/m 0.0 km/h (0 Bft) N 0.00 h 0 W/m -10.2 C -7.7 C
03.03.2005 04:00 -8.1 C 82 % 1008.4 hPa 0.0 l/m 0.0 km/h (0 Bft) N 0.00 h 0 W/m -10.7 C -8.1 C
03.03.2005 05:00 -9.0 C 82 % 1008.5 hPa 0.0 l/m 0.0 km/h (0 Bft) N 0.00 h 0 W/m -11.5 C -9.0 C
03.03.2005 06:00 -9.6 C 82 % 1008.6 hPa 0.0 l/m 0.0 km/h (0 Bft) N 0.00 h 0 W/m -12.1 C -9.6 C
03.03.2005 07:00 -9.6 C 82 % 1008.6 hPa 0.0 l/m 0.0 km/h (0 Bft) N 0.27 h 44 W/m -12.1 C -9.6 C
03.03.2005 08:00 -7.5 C 77 % 1008.3 hPa 0.0 l/m 0.0 km/h (0 Bft) N 1.00 h 198 W/m -10.9 C -7.5 C
03.03.2005 09:00 -5.5 C 73 % 1008.0 hPa 0.0 l/m 0.0 km/h (0 Bft) N 1.00 h 352 W/m -9.6 C -5.5 C
03.03.2005 10:00 -3.3 C 64 % 1007.6 hPa 0.0 l/m 1.6 km/h (1 Bft) W-NW 1.00 h 489 W/m -9.2 C -3.5 C
03.03.2005 11:00 0.2 C 52 % 1006.7 hPa 0.0 l/m 3.4 km/h (1 Bft) W-NW 1.00 h 567 W/m -8.4 C -0.7 C
03.03.2005 12:00 2.5 C 45 % 1005.7 hPa 0.0 l/m 5.1 km/h (1 Bft) W-NW 1.00 h 597 W/m -8.3 C 1.1 C
03.03.2005 13:00 4.6 C 38 % 1005.4 hPa 0.0 l/m 5.9 km/h (2 Bft) W-NW 1.00 h 583 W/m -8.6 C 3.4 C
03.03.2005 14:00 6.1 C 34 % 1004.9 hPa 0.0 l/m 4.9 km/h (1 Bft) W-NW 0.93 h 504 W/m -8.7 C 5.3 C
03.03.2005 15:00 6.7 C 34 % 1004.8 hPa 0.0 l/m 10.3 km/h (2 Bft) O-SO 0.70 h 335 W/m -8.2 C 4.8 C
03.03.2005 16:00 5.5 C 30 % 1005.3 hPa 0.0 l/m 11.2 km/h (2 Bft) O-SO 0.27 h 148 W/m -10.7 C 3.2 C
03.03.2005 17:00 4.2 C 34 % 1005.5 hPa 0.0 l/m 8.2 km/h (2 Bft) O-SO 0.00 h 42 W/m -10.4 C 2.2 C
03.03.2005 18:00 1.9 C 50 % 1006.4 hPa 0.0 l/m 1.6 km/h (1 Bft) O-SO 0.00 h 7 W/m -7.6 C 1.6 C
03.03.2005 19:00 0.5 C 56 % 1007.2 hPa 0.0 l/m 1.5 km/h (1 Bft) O-SO 0.00 h 0 W/m -7.4 C 0.0 C
03.03.2005 20:00 -0.7 C 61 % 1008.3 hPa 0.0 l/m 1.2 km/h (1 Bft) O 0.00 h 0 W/m -7.3 C -0.9 C
03.03.2005 21:00 -1.8 C 66 % 1008.6 hPa 0.0 l/m 0.0 km/h (0 Bft) N 0.00 h 0 W/m -7.2 C -1.8 C
03.03.2005 22:00 -2.1 C 71 % 1009.5 hPa 0.0 l/m 0.0 km/h (0 Bft) N 0.00 h 0 W/m -6.7 C -2.1 C
03.03.2005 23:00 -2.6 C 74 % 1009.8 hPa 0.0 l/m 0.0 km/h (0 Bft) N 0.00 h 0 W/m -6.6 C -2.6 C
04.03.2005 00:00 -3.4 C 76 % 1010.8 hPa 0.0 l/m 0.0 km/h (0 Bft) N 0.00 h 0 W/m -7.0 C -3.4 C
04.03.2005 01:00 -3.1 C 76 % 1010.9 hPa 0.0 l/m 0.0 km/h (0 Bft) N 0.00 h 0 W/m -6.7 C -3.1 C
04.03.2005 02:00 -3.4 C 72 % 1011.8 hPa 0.0 l/m 0.0 km/h (0 Bft) N 0.00 h 0 W/m -7.7 C -3.4 C
04.03.2005 03:00 -3.5 C 73 % 1011.8 hPa 0.0 l/m 0.0 km/h (0 Bft) N 0.00 h 0 W/m -7.7 C -3.5 C
04.03.2005 04:00 -4.3 C 73 % 1011.9 hPa 0.0 l/m 0.2 km/h (0 Bft) NO 0.00 h 0 W/m -8.4 C -4.3 C
04.03.2005 05:00 -4.9 C 76 % 1012.6 hPa 0.0 l/m 0.0 km/h (0 Bft) N 0.00 h 0 W/m -8.4 C -4.9 C
04.03.2005 06:00 -4.9 C 80 % 1013.1 hPa 0.0 l/m 0.0 km/h (0 Bft) N 0.00 h 0 W/m -7.9 C -4.9 C
04.03.2005 07:00 -4.6 C 80 % 1013.0 hPa 0.0 l/m 0.2 km/h (0 Bft) O-NO 0.00 h 34 W/m -7.6 C -4.7 C
04.03.2005 08:00 -2.9 C 74 % 1013.2 hPa 0.0 l/m 0.1 km/h (0 Bft) N 0.00 h 92 W/m -6.8 C -2.9 C
04.03.2005 09:00 -1.8 C 68 % 1013.7 hPa 0.0 l/m 0.9 km/h (0 Bft) W-NW 0.00 h 168 W/m -7.0 C -2.1 C
04.03.2005 10:00 -0.8 C 60 % 1013.5 hPa 0.0 l/m 4.1 km/h (1 Bft) W-NW 1.00 h 433 W/m -7.5 C -1.9 C
04.03.2005 11:00 0.8 C 54 % 1012.9 hPa 0.0 l/m 3.0 km/h (1 Bft) NW 1.00 h 508 W/m -7.4 C 0.2 C
04.03.2005 12:00 2.2 C 50 % 1012.0 hPa 0.0 l/m 3.0 km/h (1 Bft) W-NW 1.00 h 538 W/m -7.1 C 1.6 C
04.03.2005 13:00 3.0 C 45 % 1011.0 hPa 0.0 l/m 11.6 km/h (2 Bft) W-NW 1.00 h 541 W/m -7.8 C 0.5 C
04.03.2005 14:00 3.8 C 41 % 1010.2 hPa 0.0 l/m 15.9 km/h (3 Bft) W-NW 1.00 h 501 W/m -8.3 C 0.4 C
04.03.2005 15:00 4.4 C 39 % 1009.6 hPa 0.0 l/m 14.7 km/h (3 Bft) W-NW 1.00 h 435 W/m -8.4 C 1.3 C
04.03.2005 16:00 5.2 C 36 % 1009.0 hPa 0.0 l/m 15.3 km/h (3 Bft) W-NW 1.00 h 320 W/m -8.8 C 2.0 C
04.03.2005 17:00 2.7 C 42 % 1008.8 hPa 0.0 l/m 7.5 km/h (2 Bft) W-NW 0.43 h 86 W/m -9.0 C 1.0 C
04.03.2005 18:00 0.5 C 51 % 1009.8 hPa 0.0 l/m 1.0 km/h (0 Bft) NW 0.00 h 9 W/m -8.5 C 0.2 C
04.03.2005 19:00 -0.7 C 55 % 1010.4 hPa 0.0 l/m 3.6 km/h (1 Bft) O-SO 0.00 h 0 W/m -8.7 C -1.8 C
04.03.2005 20:00 -1.6 C 60 % 1009.6 hPa 0.0 l/m 2.4 km/h (1 Bft) O-SO 0.00 h 0 W/m -8.4 C -2.3 C
04.03.2005 21:00 -0.6 C 65 % 1009.3 hPa 0.0 l/m 8.7 km/h (2 Bft) W-NW 0.00 h 0 W/m -6.4 C -3.2 C
04.03.2005 22:00 -0.6 C 71 % 1009.3 hPa 0.0 l/m 18.3 km/h (3 Bft) NW 0.00 h 0 W/m -5.1 C -5.4 C
04.03.2005 23:00 -0.5 C 69 % 1009.3 hPa 0.0 l/m 22.6 km/h (4 Bft) NW 0.00 h 0 W/m -5.3 C -6.1 C
05.03.2005 00:00 -0.9 C 71 % 1009.2 hPa 0.0 l/m 13.5 km/h (3 Bft) NW 0.00 h 0 W/m -5.4 C -4.6 C
05.03.2005 01:00 -1.3 C 75 % 1008.4 hPa 0.0 l/m 0.2 km/h (0 Bft) N 0.00 h 0 W/m -5.1 C -1.3 C
05.03.2005 02:00 -1.4 C 79 % 1007.7 hPa 0.0 l/m 3.9 km/h (1 Bft) W-NW 0.00 h 0 W/m -4.6 C -2.7 C
05.03.2005 03:00 -1.4 C 76 % 1007.3 hPa 0.0 l/m 13.5 km/h (3 Bft) W-NW 0.00 h 0 W/m -5.2 C -5.7 C
05.03.2005 04:00 -1.9 C 73 % 1006.4 hPa 0.0 l/m 6.7 km/h (2 Bft) W-NW 0.00 h 0 W/m -6.0 C -3.9 C
05.03.2005 05:00 -2.4 C 76 % 1006.5 hPa 0.0 l/m 0.8 km/h (0 Bft) S 0.00 h 0 W/m -6.1 C -2.5 C
05.03.2005 06:00 -2.6 C 75 % 1005.8 hPa 0.0 l/m 0.5 km/h (0 Bft) W-NW 0.00 h 0 W/m -6.4 C -2.6 C
05.03.2005 07:00 -2.5 C 74 % 1005.4 hPa 0.0 l/m 1.8 km/h (1 Bft) W-NW 0.00 h 14 W/m -6.5 C -3.1 C
05.03.2005 08:00 -2.4 C 76 % 1005.4 hPa 0.0 l/m 0.0 km/h (0 Bft) N 0.00 h 36 W/m -6.1 C -2.4 C
05.03.2005 09:00 -1.9 C 78 % 1005.3 hPa 0.0 l/m 0.0 km/h (0 Bft) N 0.03 h 116 W/m -5.2 C -1.9 C
05.03.2005 10:00 -1.2 C 73 % 1005.2 hPa 0.0 l/m 5.0 km/h (1 Bft) W-NW 0.00 h 190 W/m -5.4 C -2.9 C
05.03.2005 11:00 -0.5 C 71 % 1005.1 hPa 0.0 l/m 12.5 km/h (3 Bft) W-NW 0.17 h 307 W/m -5.0 C -4.4 C
05.03.2005 12:00 0.4 C 66 % 1004.3 hPa 0.0 l/m 18.1 km/h (3 Bft) W-NW 0.63 h 392 W/m -5.2 C -4.4 C
05.03.2005 13:00 1.3 C 63 % 1003.8 hPa 0.0 l/m 16.4 km/h (3 Bft) W-NW 0.37 h 341 W/m -4.9 C -2.9 C
05.03.2005 14:00 0.7 C 71 % 1003.9 hPa 0.0 l/m 13.9 km/h (3 Bft) NW 0.00 h 204 W/m -3.8 C -3.0 C
05.03.2005 15:00 1.1 C 68 % 1004.1 hPa 0.0 l/m 21.2 km/h (4 Bft) W-NW 0.65 h 322 W/m -4.2 C -4.0 C
05.03.2005 16:00 0.5 C 72 % 1005.0 hPa 0.0 l/m 17.9 km/h (3 Bft) W-NW 0.05 h 93 W/m -3.9 C -4.2 C
05.03.2005 17:00 0.0 C 78 % 1005.3 hPa 0.0 l/m 15.2 km/h (3 Bft) W-NW 0.00 h 48 W/m -3.4 C -4.3 C
05.03.2005 18:00 -0.1 C 79 % 1006.3 hPa 0.0 l/m 4.5 km/h (1 Bft) W-NW 0.00 h 8 W/m -3.4 C -1.4 C
05.03.2005 19:00 -0.5 C 82 % 1007.2 hPa 0.0 l/m 2.9 km/h (1 Bft) W-NW 0.00 h 0 W/m -3.2 C -1.4 C
05.03.2005 20:00 -1.0 C 87 % 1007.3 hPa 0.0 l/m 0.1 km/h (0 Bft) N 0.00 h 0 W/m -2.8 C -1.0 C
05.03.2005 21:00 -1.4 C 88 % 1008.3 hPa 0.0 l/m 0.1 km/h (0 Bft) N 0.00 h 0 W/m -3.2 C -1.4 C
05.03.2005 22:00 -0.9 C 85 % 1008.5 hPa 0.0 l/m 1.3 km/h (1 Bft) SO 0.00 h 0 W/m -3.1 C -1.4 C
05.03.2005 23:00 -0.8 C 84 % 1009.3 hPa 0.0 l/m 1.4 km/h (1 Bft) SO 0.00 h 0 W/m -3.2 C -1.2 C
06.03.2005 00:00 -0.9 C 85 % 1009.4 hPa 0.0 l/m 0.3 km/h (0 Bft) SO 0.00 h 0 W/m -3.2 C -0.9 C
06.03.2005 01:00 -1.0 C 86 % 1009.4 hPa 0.3 l/m 0.0 km/h (0 Bft) N 0.00 h 0 W/m -3.0 C -1.0 C
06.03.2005 02:00 -1.2 C 87 % 1009.9 hPa 0.6 l/m 0.0 km/h (0 Bft) N 0.00 h 0 W/m -3.0 C -1.2 C
06.03.2005 03:00 -1.2 C 88 % 1010.4 hPa 0.0 l/m 0.0 km/h (0 Bft) N 0.00 h 0 W/m -2.9 C -1.2 C
06.03.2005 04:00 -1.2 C 88 % 1010.4 hPa 0.0 l/m 0.0 km/h (0 Bft) N 0.00 h 0 W/m -3.0 C -1.2 C
06.03.2005 05:00 -1.2 C 90 % 1011.1 hPa 0.0 l/m 0.0 km/h (0 Bft) W 0.00 h 0 W/m -2.7 C -1.2 C
06.03.2005 06:00 -1.5 C 94 % 1011.5 hPa 0.9 l/m 0.4 km/h (0 Bft) W 0.00 h 0 W/m -2.4 C -1.6 C
06.03.2005 07:00 -1.5 C 95 % 1012.4 hPa 0.3 l/m 0.0 km/h (0 Bft) N 0.00 h 23 W/m -2.2 C -1.5 C
06.03.2005 08:00 -1.1 C 93 % 1013.0 hPa 0.3 l/m 0.0 km/h (0 Bft) N 0.23 h 131 W/m -2.1 C -1.1 C
06.03.2005 09:00 -0.7 C 75 % 1013.8 hPa 0.0 l/m 4.8 km/h (1 Bft) NO 0.13 h 195 W/m -4.6 C -2.1 C
06.03.2005 10:00 -1.2 C 70 % 1015.0 hPa 0.3 l/m 3.1 km/h (1 Bft) N-NO 0.00 h 228 W/m -5.9 C -2.0 C
06.03.2005 11:00 -1.1 C 70 % 1015.6 hPa 0.0 l/m 2.0 km/h (1 Bft) O-NO 0.00 h 224 W/m -5.9 C -1.5 C
06.03.2005 12:00 -0.8 C 60 % 1016.0 hPa 0.0 l/m 3.9 km/h (1 Bft) N-NO 0.00 h 247 W/m -7.7 C -1.8 C
06.03.2005 13:00 -0.1 C 54 % 1016.4 hPa 0.0 l/m 5.1 km/h (1 Bft) N-NO 0.43 h 343 W/m -8.3 C -1.4 C
06.03.2005 14:00 0.1 C 49 % 1016.5 hPa 0.0 l/m 9.2 km/h (2 Bft) N 0.83 h 349 W/m -9.4 C -2.8 C
06.03.2005 15:00 -0.3 C 37 % 1016.5 hPa 0.0 l/m 10.1 km/h (2 Bft) N 1.00 h 320 W/m -13.3 C -3.4 C
06.03.2005 16:00 -1.0 C 41 % 1017.7 hPa 0.0 l/m 10.3 km/h (2 Bft) N-NO 0.70 h 183 W/m -12.6 C -4.4 C
06.03.2005 17:00 -1.9 C 50 % 1018.5 hPa 0.0 l/m 7.4 km/h (2 Bft) N-NO 0.08 h 58 W/m -11.1 C -4.5 C
06.03.2005 18:00 -2.8 C 54 % 1019.8 hPa 0.0 l/m 4.3 km/h (1 Bft) N-NO 0.00 h 8 W/m -10.7 C -4.1 C
06.03.2005 19:00 -3.7 C 57 % 1020.8 hPa 0.0 l/m 2.1 km/h (1 Bft) NO 0.00 h 0 W/m -10.9 C -4.4 C
06.03.2005 20:00 -4.1 C 60 % 1021.3 hPa 0.0 l/m 3.3 km/h (1 Bft) N-NO 0.00 h 0 W/m -10.7 C -5.1 C
06.03.2005 21:00 -4.6 C 62 % 1022.3 hPa 0.0 l/m 2.3 km/h (1 Bft) N-NO 0.00 h 0 W/m -10.8 C -5.3 C
06.03.2005 22:00 -5.6 C 65 % 1022.6 hPa 0.0 l/m 0.3 km/h (0 Bft) NO 0.00 h 0 W/m -11.0 C -5.6 C
06.03.2005 23:00 -6.3 C 66 % 1022.8 hPa 0.0 l/m 3.1 km/h (1 Bft) O-SO 0.00 h 0 W/m -11.6 C -7.4 C
Min-Datum _ 01.03.05 28.02.05 05.03.05 - 28.02.05 - - - 28.02.05 01.03.05
_ Min-Zeit 06:49 14:02 13:19 - 00:10 - - - 19:41 06:51
Minimum _ -16.3 C 30 % 1003.7 hPa - 0.0 km/h (0 Bft) - - - -21.9 C -21.9 C
Max-Datum _ 03.03.05 06.03.05 06.03.05 06.03.05 28.02.05 - 28.02.05 05.03.05 06.03.05 03.03.05
_ Max-Zeit 14:39 07:12 23:45 06:10 16:00 - 09:32 13:19 08:22 14:39
Maximum _ 7.0 C 95 % 1023.8 hPa 0.9 l/m 34.2 km/h
NO (5 Bft)
- 0.05 h 693 W/m -1.7 C 7.0 C
Durchschnitt _ -4.1 C 63 % 1012.1 hPa #2.7 l/m 5.1 km/h (1 Bft) O-SO #48:27 h 292 W/m -10.6 C -5.7 C

Durchschnitt Minimum Temp.-4.7 C
Durchschnitt Maximum Temp.-3.6 C
© Kaiko 2005